Time;durP1;ratioP1;P1;durP2;ratioP2;P2;SDS_P1;SDS_P2;PMS_P1;PMS_P2;Temp;Humidity;BMP_temperature;BMP_pressure;BME280_temperature;BME280_humidity;BME280_pressure;Samples;Min_cycle;Max_cycle;Signal;HPM_P1;HPM_P2
2021/03/14 00:00:36;;;;;;;4.63;1.10;;;7.60;93.90;15.20;98344.00;;;;5032931;28;20210;-67
2021/03/14 00:03:03;;;;;;;3.28;1.52;;;7.50;93.90;15.30;98352.00;;;;5048587;28;20973;-67
2021/03/14 00:05:29;;;;;;;3.40;1.60;;;7.60;93.90;15.20;98355.00;;;;5047879;28;20228;-66
2021/03/14 00:07:55;;;;;;;3.50;1.70;;;7.50;93.80;15.20;98351.00;;;;5047668;28;20241;-67
2021/03/14 00:10:21;;;;;;;3.30;1.48;;;7.60;93.90;15.10;98335.00;;;;5048848;28;20472;-66
2021/03/14 00:12:46;;;;;;;2.97;1.30;;;7.60;93.90;15.10;98349.00;;;;5048157;28;20186;-66
2021/03/14 00:15:12;;;;;;;3.70;1.80;;;7.60;93.90;15.10;98344.00;;;;5049916;28;20209;-66
2021/03/14 00:17:38;;;;;;;3.22;1.40;;;7.60;93.90;15.30;98352.00;;;;5032189;28;20182;-67
2021/03/14 00:20:05;;;;;;;3.80;1.47;;;7.60;93.90;15.10;98362.00;;;;5049109;28;20202;-66
2021/03/14 00:22:36;;;;;;;3.00;1.40;;;7.60;93.90;15.10;98349.00;;;;5048761;28;20750;-67
2021/03/14 00:25:05;;;;;;;3.10;1.50;;;7.60;93.90;15.10;98331.00;;;;5048821;28;20218;-66
2021/03/14 00:27:31;;;;;;;3.40;1.30;;;7.60;93.90;15.00;98350.00;;;;5031496;28;20688;-66
2021/03/14 00:29:56;;;;;;;3.00;1.40;;;7.60;93.90;15.00;98343.00;;;;5049249;28;20450;-66
2021/03/14 00:32:22;;;;;;;3.47;1.70;;;7.60;93.90;15.30;98344.00;;;;5019034;28;20178;-67
2021/03/14 00:34:48;;;;;;;3.27;1.57;;;7.50;93.80;15.30;98345.00;;;;5046616;28;20218;-67
2021/03/14 00:37:14;;;;;;;3.47;1.57;;;7.60;93.90;15.10;98331.00;;;;5032028;28;20190;-67
2021/03/14 00:39:39;;;;;;;2.80;1.20;;;7.60;93.90;15.10;98330.00;;;;5048426;28;20283;-67
2021/03/14 00:42:05;;;;;;;3.13;1.50;;;7.50;93.90;15.20;98336.00;;;;5048748;28;20536;-67
2021/03/14 00:44:31;;;;;;;3.00;1.40;;;7.60;93.90;15.00;98338.00;;;;5031964;28;20170;-66
2021/03/14 00:46:57;;;;;;;3.60;1.30;;;7.60;93.90;15.10;98340.00;;;;5048296;28;20213;-66
2021/03/14 00:49:23;;;;;;;2.87;1.30;;;7.50;93.90;15.10;98333.00;;;;5031235;28;20184;-67
2021/03/14 00:51:49;;;;;;;2.97;1.40;;;7.50;93.90;15.00;98328.00;;;;5049896;28;20348;-66
2021/03/14 00:54:14;;;;;;;3.53;1.60;;;7.60;94.00;15.10;98323.00;;;;5015304;28;20182;-68
2021/03/14 00:56:40;;;;;;;2.80;1.23;;;7.50;94.30;15.20;98340.00;;;;4999362;28;20830;-66
2021/03/14 00:59:06;;;;;;;3.47;1.37;;;7.50;93.90;15.30;98337.00;;;;5030588;28;20196;-66
2021/03/14 01:01:32;;;;;;;2.93;1.37;;;7.50;93.80;15.30;98332.00;;;;5048443;28;20541;-67
2021/03/14 01:03:57;;;;;;;3.30;1.13;;;7.50;93.80;15.30;98330.00;;;;5047636;28;20194;-66
2021/03/14 01:06:23;;;;;;;3.70;1.80;;;7.50;93.90;15.40;98336.00;;;;5047981;28;20194;-67
2021/03/14 01:08:50;;;;;;;3.83;1.43;;;7.50;93.80;15.30;98327.00;;;;5030984;28;20279;-66
2021/03/14 01:11:16;;;;;;;3.47;1.30;;;7.50;93.90;15.10;98331.00;;;;5049699;28;20443;-67
2021/03/14 01:13:42;;;;;;;2.90;1.30;;;7.50;93.90;15.30;98324.00;;;;5031014;28;20255;-67
2021/03/14 01:16:07;;;;;;;3.80;1.67;;;7.50;93.80;15.20;98321.00;;;;5031850;28;20538;-66
2021/03/14 01:18:33;;;;;;;2.97;1.17;;;7.60;93.90;15.20;98313.00;;;;5014767;28;20527;-67
2021/03/14 01:20:59;;;;;;;3.13;1.10;;;7.60;93.80;15.30;98323.00;;;;5015075;28;20209;-67
2021/03/14 01:23:25;;;;;;;3.47;1.50;;;7.50;93.80;15.20;98323.00;;;;5048256;28;20185;-67
2021/03/14 01:25:55;;;;;;;2.80;1.03;;;7.50;93.70;15.20;98308.00;;;;5031029;28;20281;-66
2021/03/14 01:28:20;;;;;;;3.33;1.30;;;7.50;93.60;15.20;98311.00;;;;5049185;28;20304;-66
2021/03/14 01:30:46;;;;;;;2.93;1.20;;;7.50;93.70;15.20;98303.00;;;;5051025;28;20285;-66
2021/03/14 01:33:12;;;;;;;2.93;1.23;;;7.50;93.70;15.30;98326.00;;;;5035293;28;20182;-66
2021/03/14 01:35:37;;;;;;;3.23;1.50;;;7.50;93.70;15.20;98330.00;;;;5051465;28;20256;-67
2021/03/14 01:38:03;;;;;;;2.93;1.10;;;7.50;93.80;15.20;98327.00;;;;5035696;28;20269;-67
2021/03/14 01:40:29;;;;;;;3.03;1.13;;;7.50;93.80;15.10;98329.00;;;;5018269;28;20254;-67
2021/03/14 01:42:55;;;;;;;2.70;1.00;;;7.50;94.20;15.10;98335.00;;;;5053406;28;20259;-67
2021/03/14 01:45:21;;;;;;;3.03;1.00;;;7.50;93.80;15.20;98333.00;;;;5018180;28;20198;-67
2021/03/14 01:47:49;;;;;;;2.87;1.13;;;7.50;93.80;15.20;98328.00;;;;5018723;28;20914;-66
2021/03/14 01:50:21;;;;;;;2.85;1.20;;;7.50;93.80;15.10;98323.00;;;;5018803;28;20861;-66
2021/03/14 01:52:47;;;;;;;2.70;0.90;;;7.50;93.90;15.10;98321.00;;;;5018997;28;20191;-66
2021/03/14 01:55:14;;;;;;;3.87;1.23;;;7.50;93.80;15.10;98310.00;;;;5017819;28;20608;-66
2021/03/14 01:57:40;;;;;;;2.70;1.00;;;7.50;93.80;14.90;98297.00;;;;5035363;28;20965;-66
2021/03/14 02:00:08;;;;;;;2.80;1.10;;;7.50;93.90;15.10;98327.00;;;;5035128;28;20240;-66
2021/03/14 02:02:35;;;;;;;3.38;1.30;;;7.50;93.90;15.00;98303.00;;;;5018471;28;20222;-66
2021/03/14 02:05:01;;;;;;;3.60;0.95;;;7.50;93.90;14.90;98322.00;;;;5033820;28;20193;-66
2021/03/14 02:07:27;;;;;;;2.95;1.23;;;7.50;93.90;15.10;98314.00;;;;5051440;28;20209;-67
2021/03/14 02:09:52;;;;;;;2.70;0.97;;;7.50;93.90;15.10;98314.00;;;;5050977;28;20189;-67
2021/03/14 02:12:20;;;;;;;3.10;1.10;;;7.50;93.90;15.00;98315.00;;;;5051331;28;20746;-67
2021/03/14 02:14:46;;;;;;;2.60;0.80;;;7.50;94.00;14.90;98324.00;;;;5018412;28;20635;-66
2021/03/14 02:17:15;;;;;;;2.77;0.90;;;7.50;93.90;15.00;98312.00;;;;5034879;28;20187;-66
2021/03/14 02:19:51;;;;;;;3.58;1.23;;;7.50;94.00;15.10;98306.00;;;;5034413;28;20608;-66
2021/03/14 02:22:18;;;;;;;2.80;1.08;;;7.50;94.00;15.10;98306.00;;;;5035807;28;20174;-67
2021/03/14 02:24:51;;;;;;;2.90;0.80;;;7.50;94.00;15.20;98295.00;;;;5018167;28;20189;-67
2021/03/14 02:27:17;;;;;;;2.63;1.02;;;7.50;94.00;15.10;98290.00;;;;5019307;28;20198;-67
2021/03/14 02:29:43;;;;;;;2.60;0.97;;;7.50;94.00;15.30;98293.00;;;;5050658;28;20178;-66
2021/03/14 02:32:10;;;;;;;3.30;1.20;;;7.50;94.10;15.10;98296.00;;;;5000988;28;20186;-67
2021/03/14 02:34:39;;;;;;;3.03;1.00;;;7.50;94.10;14.90;98301.00;;;;5001489;28;20324;-67
2021/03/14 02:37:05;;;;;;;2.55;0.93;;;7.50;94.10;14.90;98292.00;;;;5018043;28;20214;-67
2021/03/14 02:39:31;;;;;;;2.95;1.10;;;7.50;94.10;15.10;98289.00;;;;5034092;28;20182;-67
2021/03/14 02:41:58;;;;;;;3.10;1.10;;;7.50;94.10;14.80;98300.00;;;;5050843;28;20213;-67
2021/03/14 02:44:27;;;;;;;2.95;0.93;;;7.50;94.10;14.90;98297.00;;;;5017239;28;20269;-68
2021/03/14 02:46:53;;;;;;;4.10;1.25;;;7.50;94.10;15.00;98301.00;;;;5050644;28;20688;-66
2021/03/14 02:49:20;;;;;;;3.00;1.03;;;7.50;94.10;15.30;98298.00;;;;5017701;28;20193;-67
2021/03/14 02:51:46;;;;;;;2.70;1.00;;;7.50;94.10;15.00;98291.00;;;;5017602;28;20281;-67
2021/03/14 02:54:12;;;;;;;3.00;0.80;;;7.50;94.10;14.90;98299.00;;;;5017978;28;20189;-68
2021/03/14 02:56:38;;;;;;;2.85;0.90;;;7.50;94.10;14.90;98294.00;;;;5016419;28;20202;-66
2021/03/14 02:59:04;;;;;;;2.90;0.90;;;7.50;94.10;14.90;98297.00;;;;5034186;28;20251;-67
2021/03/14 03:01:33;;;;;;;2.63;0.90;;;7.50;94.10;14.80;98292.00;;;;5033513;28;20206;-67
2021/03/14 03:03:59;;;;;;;2.53;0.80;;;7.50;94.10;14.80;98282.00;;;;5017378;28;20244;-66
2021/03/14 03:06:26;;;;;;;3.22;0.93;;;7.50;94.10;14.80;98270.00;;;;5016642;28;20664;-67
2021/03/14 03:08:52;;;;;;;3.80;1.30;;;7.50;94.10;15.10;98285.00;;;;5034034;28;20209;-66
2021/03/14 03:11:18;;;;;;;2.90;0.83;;;7.50;94.10;14.80;98292.00;;;;5017159;28;20260;-67
2021/03/14 03:13:43;;;;;;;3.27;1.00;;;7.50;94.20;14.80;98282.00;;;;5050302;28;20229;-67
2021/03/14 03:16:14;;;;;;;2.73;0.93;;;7.50;94.10;15.00;98283.00;;;;5017069;28;20630;-66
2021/03/14 03:18:40;;;;;;;4.05;0.98;;;7.50;94.20;14.80;98278.00;;;;5050198;28;20490;-67
2021/03/14 03:21:07;;;;;;;2.70;1.00;;;7.50;94.10;14.80;98278.00;;;;5050102;28;20229;-67
2021/03/14 03:23:34;;;;;;;2.95;0.95;;;7.50;94.10;15.00;98268.00;;;;5017080;28;20265;-67
2021/03/14 03:26:01;;;;;;;2.85;1.10;;;7.50;94.20;14.80;98269.00;;;;5016635;28;20229;-67
2021/03/14 03:28:26;;;;;;;2.50;0.77;;;7.50;94.10;14.90;98270.00;;;;5049961;28;20740;-67
2021/03/14 03:30:52;;;;;;;2.70;0.90;;;7.50;94.20;14.80;98263.00;;;;5049638;28;20284;-66
2021/03/14 03:33:18;;;;;;;3.43;1.00;;;7.50;94.10;14.80;98263.00;;;;5049653;28;20174;-67
2021/03/14 03:35:44;;;;;;;2.60;0.88;;;7.50;94.20;14.80;98273.00;;;;5032579;28;20466;-67
2021/03/14 03:38:10;;;;;;;2.60;0.77;;;7.50;94.20;14.70;98274.00;;;;5033379;28;20186;-67
2021/03/14 03:40:36;;;;;;;2.83;0.90;;;7.50;94.20;15.10;98283.00;;;;5032882;28;20205;-66
2021/03/14 03:43:15;;;;;;;2.63;0.80;;;7.50;94.20;15.00;98281.00;;;;5032829;28;20182;-67
2021/03/14 03:45:45;;;;;;;2.95;0.80;;;7.50;94.10;15.10;98267.00;;;;5033422;28;20237;-67
2021/03/14 03:48:14;;;;;;;2.80;0.90;;;7.50;94.20;15.20;98267.00;;;;5032932;28;20220;-67
2021/03/14 03:50:39;;;;;;;2.75;0.90;;;7.50;94.20;15.00;98265.00;;;;5032908;28;20204;-67
2021/03/14 03:53:05;;;;;;;2.77;0.80;;;7.50;94.10;15.10;98283.00;;;;5016313;28;20170;-67
2021/03/14 03:55:31;;;;;;;2.50;0.83;;;7.40;94.10;14.80;98265.00;;;;5016561;28;20204;-67
2021/03/14 03:57:56;;;;;;;3.07;1.00;;;7.50;94.10;14.70;98255.00;;;;5016905;28;20673;-68
2021/03/14 04:00:22;;;;;;;2.80;1.00;;;7.50;94.10;14.80;98248.00;;;;5032795;28;20288;-68
2021/03/14 04:02:48;;;;;;;2.57;0.70;;;7.50;94.10;14.80;98259.00;;;;5015600;28;20169;-68
2021/03/14 04:05:14;;;;;;;3.80;0.87;;;7.40;94.10;14.80;98247.00;;;;5016354;28;20230;-68
2021/03/14 04:07:45;;;;;;;2.63;0.70;;;7.50;94.20;14.80;98253.00;;;;5016068;28;20210;-67
2021/03/14 04:10:14;;;;;;;2.70;0.98;;;7.40;94.20;14.90;98254.00;;;;5016563;28;20205;-67
2021/03/14 04:12:41;;;;;;;2.90;1.00;;;7.50;94.20;14.80;98248.00;;;;5016621;28;20201;-67
2021/03/14 04:15:08;;;;;;;2.80;1.00;;;7.50;94.20;14.60;98238.00;;;;5015738;28;20232;-67
2021/03/14 04:17:35;;;;;;;3.10;1.00;;;7.50;94.20;14.60;98249.00;;;;5032356;28;20182;-68
2021/03/14 04:20:02;;;;;;;2.70;0.73;;;7.40;94.10;14.80;98243.00;;;;5016393;28;20348;-68
2021/03/14 04:22:28;;;;;;;2.78;0.80;;;7.40;94.20;14.80;98265.00;;;;5031923;28;20186;-67
2021/03/14 04:24:54;;;;;;;2.53;0.70;;;7.40;94.20;14.80;98265.00;;;;5032791;28;20186;-67
2021/03/14 04:27:19;;;;;;;2.73;0.90;;;7.40;94.20;14.80;98265.00;;;;5015308;28;20408;-68
2021/03/14 04:29:45;;;;;;;3.40;0.80;;;7.40;94.20;14.90;98266.00;;;;4999697;28;20217;-67
2021/03/14 04:32:12;;;;;;;2.43;0.60;;;7.40;94.20;14.80;98241.00;;;;5031953;28;20642;-69
2021/03/14 04:34:37;;;;;;;2.90;1.00;;;7.40;94.20;14.70;98251.00;;;;5016087;28;20565;-67
2021/03/14 04:37:03;;;;;;;3.17;0.80;;;7.40;94.20;14.80;98258.00;;;;5015228;28;20228;-68
2021/03/14 04:39:29;;;;;;;2.40;0.60;;;7.40;94.20;14.80;98262.00;;;;5032379;28;20197;-67
2021/03/14 04:41:54;;;;;;;2.60;0.80;;;7.40;94.10;14.60;98237.00;;;;5015406;28;20205;-68
2021/03/14 04:44:20;;;;;;;2.90;0.80;;;7.40;94.20;14.80;98273.00;;;;5016211;28;20182;-67
2021/03/14 04:46:46;;;;;;;2.83;0.80;;;7.40;94.20;14.80;98256.00;;;;5032170;28;20457;-66
2021/03/14 04:49:13;;;;;;;2.50;0.73;;;7.40;94.20;14.80;98263.00;;;;5048328;28;20283;-67
2021/03/14 04:51:41;;;;;;;3.42;0.90;;;7.40;94.20;14.80;98255.00;;;;5015459;28;20202;-67
2021/03/14 04:54:09;;;;;;;5.10;0.80;;;7.40;94.20;14.80;98257.00;;;;5032235;28;20182;-67
2021/03/14 04:56:34;;;;;;;2.40;0.60;;;7.40;94.20;14.60;98249.00;;;;5015391;28;20209;-67
2021/03/14 04:59:00;;;;;;;2.63;0.80;;;7.40;94.20;14.80;98254.00;;;;5048378;28;20699;-67
2021/03/14 05:01:26;;;;;;;2.83;0.80;;;7.40;94.20;14.70;98261.00;;;;5015302;28;20275;-67
2021/03/14 05:03:53;;;;;;;2.50;0.70;;;7.40;94.20;14.70;98256.00;;;;5031951;28;20523;-67
2021/03/14 05:06:21;;;;;;;2.90;0.90;;;7.40;94.20;14.80;98250.00;;;;5030836;28;20281;-67
2021/03/14 05:08:47;;;;;;;3.20;0.90;;;7.40;94.20;14.80;98251.00;;;;5032281;28;20317;-67
2021/03/14 05:11:20;;;;;;;2.65;0.95;;;7.40;94.20;14.80;98248.00;;;;5031753;28;20217;-67
2021/03/14 05:13:47;;;;;;;2.60;0.65;;;7.40;94.20;14.80;98266.00;;;;5032012;28;20627;-68
2021/03/14 05:16:14;;;;;;;2.95;0.85;;;7.40;94.20;14.90;98267.00;;;;5048829;28;20198;-67
2021/03/14 05:18:39;;;;;;;2.80;0.70;;;7.40;94.20;14.90;98278.00;;;;5031356;28;20208;-68
2021/03/14 05:21:05;;;;;;;2.70;0.80;;;7.40;94.20;14.70;98273.00;;;;5014914;28;20743;-67
2021/03/14 05:23:32;;;;;;;3.00;0.90;;;7.40;94.20;14.80;98259.00;;;;5048073;28;20518;-67
2021/03/14 05:25:59;;;;;;;2.60;0.80;;;7.40;94.20;14.80;98265.00;;;;5031493;28;20206;-68
2021/03/14 05:28:25;;;;;;;2.83;0.70;;;7.40;94.20;14.90;98262.00;;;;5015312;28;20206;-68
2021/03/14 05:30:51;;;;;;;2.80;0.73;;;7.40;94.20;14.70;98261.00;;;;5015785;28;20291;-67
2021/03/14 05:33:16;;;;;;;2.80;0.90;;;7.40;94.20;14.90;98262.00;;;;5047220;28;20190;-68
2021/03/14 05:35:42;;;;;;;2.90;0.80;;;7.40;94.20;14.80;98265.00;;;;5031505;28;20250;-67
2021/03/14 05:38:08;;;;;;;2.60;0.70;;;7.40;94.20;14.70;98260.00;;;;5048994;28;20245;-67
2021/03/14 05:40:33;;;;;;;3.00;0.67;;;7.40;94.20;15.00;98269.00;;;;5047945;28;20229;-67
2021/03/14 05:42:59;;;;;;;2.60;0.70;;;7.40;94.20;14.80;98269.00;;;;5048977;28;20226;-67
2021/03/14 05:45:25;;;;;;;3.10;0.80;;;7.40;94.20;14.70;98280.00;;;;5031536;28;20209;-67
2021/03/14 05:47:51;;;;;;;4.43;0.82;;;7.40;94.20;14.80;98286.00;;;;5031366;28;20214;-67
2021/03/14 05:50:26;;;;;;;5.13;0.70;;;7.40;94.20;14.80;98295.00;;;;5031772;28;20198;-67
2021/03/14 05:52:52;;;;;;;2.60;0.60;;;7.40;94.20;14.60;98280.00;;;;5030732;28;20601;-67
2021/03/14 05:55:21;;;;;;;3.73;0.80;;;7.40;94.20;14.60;98293.00;;;;5031514;28;20205;-67
2021/03/14 05:57:50;;;;;;;2.72;0.75;;;7.40;94.20;14.60;98286.00;;;;5031282;28;20521;-67
2021/03/14 06:00:24;;;;;;;2.50;0.65;;;7.40;94.20;14.60;98280.00;;;;5031905;28;20234;-67
2021/03/14 06:02:51;;;;;;;2.70;0.70;;;7.40;94.20;14.80;98297.00;;;;5032108;28;20182;-67
2021/03/14 06:05:16;;;;;;;2.60;0.70;;;7.40;94.20;14.60;98271.00;;;;5031501;28;20201;-68
2021/03/14 06:07:42;;;;;;;2.67;0.83;;;7.40;94.20;14.50;98298.00;;;;5014130;28;20741;-67
2021/03/14 06:10:08;;;;;;;2.60;0.67;;;7.40;94.20;14.80;98300.00;;;;5047497;28;20213;-68
2021/03/14 06:12:34;;;;;;;2.60;0.80;;;7.40;94.20;14.60;98295.00;;;;5047812;28;20553;-68
2021/03/14 06:15:00;;;;;;;2.50;0.60;;;7.40;94.20;14.60;98301.00;;;;5031161;28;20197;-68
2021/03/14 06:17:27;;;;;;;2.60;0.70;;;7.40;94.20;14.60;98304.00;;;;5033627;28;20457;-67
2021/03/14 06:19:53;;;;;;;2.47;0.63;;;7.40;94.20;14.60;98320.00;;;;5052857;28;20182;-68
2021/03/14 06:22:24;;;;;;;2.60;0.60;;;7.40;94.10;14.60;98328.00;;;;5034483;28;20180;-68
2021/03/14 06:24:51;;;;;;;2.53;0.70;;;7.40;94.10;14.70;98325.00;;;;5018234;28;20186;-67
2021/03/14 06:27:37;;;;;;;2.72;0.85;;;7.40;94.20;14.50;98336.00;;;;5051402;28;20186;-67
2021/03/14 06:30:10;;;;;;;2.70;0.80;;;7.40;94.10;14.60;98339.00;;;;5050769;28;20293;-68
2021/03/14 06:32:36;;;;;;;2.50;0.70;;;7.40;94.10;14.50;98335.00;;;;5034569;28;20189;-68
2021/03/14 06:35:16;;;;;;;3.25;0.82;;;7.40;94.10;14.50;98354.00;;;;5018047;28;20236;-67
2021/03/14 06:37:42;;;;;;;2.50;0.80;;;7.40;94.10;14.50;98362.00;;;;5033911;28;20551;-67
2021/03/14 06:40:13;;;;;;;2.47;0.60;;;7.40;94.10;14.50;98375.00;;;;5034721;28;20197;-68
2021/03/14 06:42:40;;;;;;;3.67;0.77;;;7.40;94.10;14.50;98374.00;;;;5019234;28;20170;-67
2021/03/14 06:45:11;;;;;;;2.58;0.80;;;7.40;94.10;14.50;98369.00;;;;5018172;28;20201;-68
2021/03/14 06:47:48;;;;;;;3.20;1.17;;;7.40;94.10;14.50;98343.00;;;;5034681;28;20241;-68
2021/03/14 06:50:29;;;;;;;2.30;0.60;;;7.40;94.20;14.60;98382.00;;;;5033818;28;20205;-68
2021/03/14 06:53:18;;;;;;;2.70;0.88;;;7.40;94.20;14.50;98394.00;;;;5051779;28;20186;-68
2021/03/14 06:55:45;;;;;;;2.70;0.80;;;7.40;94.10;14.50;98389.00;;;;5018756;28;20201;-68
2021/03/14 06:58:34;;;;;;;2.80;0.80;;;7.40;94.20;14.50;98360.00;;;;5050263;28;20657;-68
2021/03/14 07:01:17;;;;;;;2.60;0.75;;;7.40;94.20;14.30;98381.00;;;;5018905;28;20202;-68
2021/03/14 07:03:47;;;;;;;2.95;0.80;;;7.40;94.20;14.50;98387.00;;;;5049995;28;20608;-68
2021/03/14 07:06:23;;;;;;;2.65;0.80;;;7.40;94.20;14.50;98385.00;;;;5033736;28;20214;-68
2021/03/14 07:08:57;;;;;;;4.15;0.77;;;7.40;94.20;14.60;98383.00;;;;5034989;28;20329;-68
2021/03/14 07:11:37;;;;;;;2.60;0.60;;;7.40;94.20;14.70;98383.00;;;;5034681;28;20571;-68
2021/03/14 07:14:09;;;;;;;2.80;0.80;;;7.40;94.20;14.50;98385.00;;;;5034159;28;20232;-68
2021/03/14 07:16:55;;;;;;;2.70;0.70;;;7.40;94.20;14.50;98387.00;;;;5018269;28;20296;-68
2021/03/14 07:19:27;;;;;;;2.70;0.70;;;7.40;94.20;14.50;98388.00;;;;5033397;28;20256;-68
2021/03/14 07:22:11;;;;;;;2.70;0.85;;;7.40;94.20;14.50;98392.00;;;;5051369;28;20205;-67
2021/03/14 07:24:39;;;;;;;2.40;0.70;;;7.40;94.10;14.30;98383.00;;;;5050254;28;20231;-68
2021/03/14 07:27:07;;;;;;;3.50;0.80;;;7.40;94.10;14.30;98408.00;;;;5017309;28;20205;-67
2021/03/14 07:29:36;;;;;;;2.65;0.65;;;7.40;94.10;14.40;98412.00;;;;5032955;28;20190;-68
2021/03/14 07:32:03;;;;;;;3.65;0.90;;;7.40;94.10;14.60;98416.00;;;;5033660;28;20213;-68
2021/03/14 07:34:30;;;;;;;4.18;0.80;;;7.40;94.10;14.40;98425.00;;;;5033272;28;20675;-68
2021/03/14 07:36:55;;;;;;;2.50;0.50;;;7.40;94.10;14.60;98431.00;;;;5017248;28;20194;-68
2021/03/14 07:39:22;;;;;;;3.00;0.80;;;7.40;94.10;14.70;98414.00;;;;5032543;28;20185;-68
2021/03/14 07:41:47;;;;;;;3.33;0.68;;;7.40;94.10;14.70;98419.00;;;;5016871;28;20194;-68
2021/03/14 07:44:16;;;;;;;2.77;0.80;;;7.40;94.10;14.70;98418.00;;;;5016747;28;20276;-68
2021/03/14 07:46:42;;;;;;;2.60;0.70;;;7.40;94.10;14.70;98422.00;;;;5017307;28;20204;-68
2021/03/14 07:49:10;;;;;;;3.00;0.97;;;7.40;94.10;14.60;98428.00;;;;5015870;28;20304;-69
2021/03/14 07:51:36;;;;;;;2.80;0.80;;;7.40;94.10;14.50;98426.00;;;;5017294;28;20620;-68
2021/03/14 07:54:07;;;;;;;2.90;0.90;;;7.40;94.00;14.50;98449.00;;;;5032390;28;20205;-68
2021/03/14 07:56:36;;;;;;;2.95;0.80;;;7.40;94.00;14.50;98458.00;;;;5049571;28;20206;-68
2021/03/14 07:59:03;;;;;;;3.13;1.00;;;7.40;94.10;14.50;98467.00;;;;5016626;28;20615;-68
2021/03/14 08:01:31;;;;;;;3.03;0.80;;;7.40;94.00;14.60;98468.00;;;;5032993;28;20225;-68
2021/03/14 08:03:58;;;;;;;2.85;0.95;;;7.40;94.00;14.50;98478.00;;;;5016777;28;20205;-68
2021/03/14 08:06:43;;;;;;;2.95;1.00;;;7.40;94.00;14.60;98484.00;;;;5032145;28;20624;-68
2021/03/14 08:09:08;;;;;;;2.40;0.70;;;7.40;94.10;14.50;98478.00;;;;5050257;28;20209;-68
2021/03/14 08:11:34;;;;;;;3.13;0.93;;;7.40;94.10;14.50;98482.00;;;;5050921;28;20267;-68
2021/03/14 08:14:00;;;;;;;2.80;0.80;;;7.40;94.00;14.70;98498.00;;;;4999698;28;20608;-68
2021/03/14 08:16:25;;;;;;;5.03;1.17;;;7.40;94.10;14.60;98485.00;;;;5032544;28;20857;-68
2021/03/14 08:18:52;;;;;;;3.67;0.90;;;7.40;94.10;14.50;98488.00;;;;5016369;28;20179;-68
2021/03/14 08:21:21;;;;;;;2.58;0.80;;;7.40;94.20;14.60;98495.00;;;;5031785;28;20260;-68
2021/03/14 08:23:51;;;;;;;2.55;0.70;;;7.40;94.00;14.70;98484.00;;;;5049287;28;20182;-69
2021/03/14 08:26:22;;;;;;;2.50;0.70;;;7.40;94.00;14.60;98483.00;;;;5000109;28;20210;-67
2021/03/14 08:28:58;;;;;;;2.47;0.65;;;7.40;94.00;14.80;98480.00;;;;5016077;28;20328;-68
2021/03/14 08:31:46;;;;;;;3.00;1.08;;;7.40;94.00;14.60;98476.00;;;;5049271;28;20566;-69
2021/03/14 08:34:18;;;;;;;2.60;0.70;;;7.40;94.00;14.60;98472.00;;;;5050210;28;20184;-68
2021/03/14 08:36:44;;;;;;;3.20;0.95;;;7.40;94.00;14.60;98484.00;;;;5016123;28;20232;-68
2021/03/14 08:39:33;;;;;;;2.70;0.70;;;7.40;94.00;14.60;98500.00;;;;5032021;28;20185;-69
2021/03/14 08:42:01;;;;;;;2.60;0.70;;;7.40;94.00;14.60;98503.00;;;;5048577;28;20218;-68
2021/03/14 08:44:42;;;;;;;2.83;1.00;;;7.40;94.00;14.80;98502.00;;;;5018033;28;20198;-68
2021/03/14 08:47:14;;;;;;;3.33;0.90;;;7.40;94.00;14.60;98522.00;;;;5047891;28;20747;-68
2021/03/14 08:49:48;;;;;;;2.50;0.80;;;7.40;94.00;14.60;98524.00;;;;5042244;28;20196;-68
2021/03/14 08:52:15;;;;;;;2.83;0.80;;;7.40;94.00;14.50;98524.00;;;;5051541;28;20185;-68
2021/03/14 08:54:47;;;;;;;3.65;0.93;;;7.40;94.00;14.60;98514.00;;;;5051587;28;20585;-68
2021/03/14 08:57:14;;;;;;;3.17;1.00;;;7.40;94.00;14.60;98524.00;;;;5051607;28;20264;-68
2021/03/14 08:59:53;;;;;;;2.70;0.80;;;7.40;94.00;14.70;98518.00;;;;5050477;28;20184;-68
2021/03/14 09:02:24;;;;;;;2.50;0.70;;;7.40;94.00;14.80;98523.00;;;;5053098;28;20182;-68
2021/03/14 09:04:50;;;;;;;3.35;0.80;;;7.40;94.00;14.90;98521.00;;;;5031364;28;20603;-68
2021/03/14 09:07:16;;;;;;;3.47;0.98;;;7.40;93.90;14.80;98524.00;;;;5047910;28;20174;-68
2021/03/14 09:09:42;;;;;;;2.80;0.80;;;7.40;93.90;14.80;98519.00;;;;5031356;28;20182;-68
2021/03/14 09:12:16;;;;;;;2.80;0.93;;;7.40;93.90;14.90;98534.00;;;;5047627;28;20178;-68
2021/03/14 09:14:48;;;;;;;3.00;1.10;;;7.40;93.80;14.80;98536.00;;;;5047782;28;20972;-68
2021/03/14 09:17:19;;;;;;;2.70;0.80;;;7.40;93.90;14.70;98535.00;;;;5047837;28;20331;-67
2021/03/14 09:19:54;;;;;;;2.50;0.80;;;7.40;93.80;14.70;98538.00;;;;5048062;28;20182;-68
2021/03/14 09:22:25;;;;;;;4.38;0.90;;;7.40;93.80;14.70;98535.00;;;;5048161;28;20648;-68
2021/03/14 09:25:04;;;;;;;4.15;1.25;;;7.40;93.70;14.70;98526.00;;;;5031126;28;20182;-68
2021/03/14 09:27:36;;;;;;;2.60;0.75;;;7.40;93.60;14.80;98526.00;;;;5031116;28;20236;-68
2021/03/14 09:30:11;;;;;;;2.80;0.85;;;7.40;93.80;14.80;98517.00;;;;5047297;28;20186;-67
2021/03/14 09:32:49;;;;;;;2.80;0.82;;;7.40;93.60;14.80;98519.00;;;;5047423;28;20545;-68
2021/03/14 09:35:31;;;;;;;3.00;1.00;;;7.40;93.60;14.60;98523.00;;;;5014794;28;20233;-68
2021/03/14 09:38:11;;;;;;;2.70;0.85;;;7.40;93.60;14.90;98529.00;;;;5054668;28;20264;-68
2021/03/14 09:40:44;;;;;;;2.90;1.00;;;7.40;93.50;14.90;98531.00;;;;5052327;28;20209;-68
2021/03/14 09:43:28;;;;;;;2.88;0.95;;;7.40;93.50;14.90;98526.00;;;;5068196;28;20216;-68
2021/03/14 09:46:01;;;;;;;2.80;0.80;;;7.40;93.50;14.90;98514.00;;;;5034594;28;20209;-68
2021/03/14 09:48:34;;;;;;;2.67;0.80;;;7.40;93.60;14.90;98520.00;;;;5035317;28;20209;-68
2021/03/14 09:51:05;;;;;;;3.78;1.23;;;7.40;93.50;14.90;98531.00;;;;5052035;28;20205;-68
2021/03/14 09:53:36;;;;;;;2.80;0.90;;;7.50;93.60;14.90;98527.00;;;;5054948;28;20185;-68
2021/03/14 09:56:06;;;;;;;2.92;1.00;;;7.40;93.50;14.90;98528.00;;;;5073026;28;20193;-68
2021/03/14 09:58:32;;;;;;;4.72;1.10;;;7.50;93.60;15.00;98556.00;;;;5072120;28;20177;-68
2021/03/14 10:00:58;;;;;;;3.97;1.17;;;7.40;93.60;15.10;98564.00;;;;5054775;28;20621;-68
2021/03/14 10:03:34;;;;;;;3.30;0.80;;;7.50;93.80;14.90;98553.00;;;;5055564;28;20223;-68
2021/03/14 10:06:05;;;;;;;2.70;0.93;;;7.50;93.80;15.10;98531.00;;;;5054910;28;20291;-68
2021/03/14 10:08:35;;;;;;;2.72;1.10;;;7.40;93.80;15.00;98539.00;;;;5055770;28;20671;-68
2021/03/14 10:11:12;;;;;;;3.40;1.20;;;7.50;93.90;14.90;98538.00;;;;5072752;28;20193;-68
2021/03/14 10:13:38;;;;;;;2.70;0.90;;;7.50;93.90;14.90;98542.00;;;;5040153;28;20663;-68
2021/03/14 10:16:05;;;;;;;2.80;0.80;;;7.50;93.90;14.90;98547.00;;;;5037587;28;20201;-68
2021/03/14 10:18:31;;;;;;;3.13;0.90;;;7.50;93.90;15.00;98542.00;;;;5055661;28;20205;-68
2021/03/14 10:21:25;;;;;;;2.70;0.90;;;7.50;93.90;14.90;98549.00;;;;5037883;28;20232;-68
2021/03/14 10:23:52;;;;;;;2.72;0.70;;;7.50;93.90;15.00;98553.00;;;;5055966;28;20190;-68
2021/03/14 10:26:17;;;;;;;2.80;0.90;;;7.50;93.90;15.10;98549.00;;;;5038507;28;20201;-68
2021/03/14 10:28:46;;;;;;;2.63;0.80;;;7.50;93.90;15.10;98545.00;;;;5054657;28;20201;-68
2021/03/14 10:31:12;;;;;;;2.58;0.82;;;7.50;93.90;15.20;98556.00;;;;5054391;28;20442;-68
2021/03/14 10:33:41;;;;;;;2.70;0.90;;;7.50;93.90;15.00;98551.00;;;;5038056;28;20220;-68
2021/03/14 10:36:12;;;;;;;3.03;0.98;;;7.50;93.90;14.90;98550.00;;;;5054732;28;20236;-68
2021/03/14 10:38:40;;;;;;;2.50;0.70;;;7.50;93.90;15.00;98554.00;;;;5054796;28;20216;-68
2021/03/14 10:41:19;;;;;;;2.72;0.80;;;7.50;93.90;15.10;98548.00;;;;5070964;28;20272;-68
2021/03/14 10:43:53;;;;;;;3.13;0.93;;;7.50;93.90;15.20;98538.00;;;;5055771;28;20184;-68
2021/03/14 10:46:45;;;;;;;2.95;1.00;;;7.50;93.90;15.10;98551.00;;;;5055105;28;20208;-68
2021/03/14 10:49:13;;;;;;;2.60;0.80;;;7.50;93.90;14.90;98548.00;;;;5070914;28;20256;-68
2021/03/14 10:51:41;;;;;;;2.97;0.80;;;7.50;93.90;15.00;98558.00;;;;5038049;28;20263;-68
2021/03/14 10:54:12;;;;;;;2.60;0.73;;;7.50;93.90;14.90;98514.00;;;;5054677;28;20182;-68
2021/03/14 10:56:46;;;;;;;2.97;1.10;;;7.50;93.90;15.00;98541.00;;;;5053669;28;20199;-68
2021/03/14 10:59:41;;;;;;;2.83;1.10;;;7.50;93.80;15.10;98544.00;;;;5038461;28;20193;-68
2021/03/14 11:02:25;;;;;;;2.78;0.90;;;7.50;93.80;15.20;98545.00;;;;5040643;28;20263;-68
2021/03/14 11:04:57;;;;;;;2.50;0.85;;;7.50;93.80;15.10;98545.00;;;;5038018;28;20231;-68
2021/03/14 11:07:28;;;;;;;2.90;0.90;;;7.50;93.80;15.10;98555.00;;;;5053991;28;20178;-68
2021/03/14 11:10:26;;;;;;;3.13;1.02;;;7.50;93.70;15.10;98549.00;;;;5053604;28;20207;-68